Tuesday, February 9, 2016, 2:26 AM EST
Back to Local

KPTW, Pottstown Limerick Airport

Location: Royersford, PA, United States Lat: 40.233
Local Time: 2:26 AM EST ( 7:26 GMT) Lon: -75.55
Time Zone: US/Eastern Elev: 291 ft

Show me the last for .
Show Decoded

2016-02-09 02:11 METAR KPTW 090711Z AUTO 10006KT 2 1/2SM -SN BR BKN010 OVC033 M02/M03 A2968 RMK
                 AO2 P0000 T10171028 =
2016-02-09 01:54 METAR KPTW 090654Z AUTO 11003KT 5SM -SN BR BKN010 OVC035 M02/M03 A2968 RMK AO2
                 SNE22B50 CIG 007V014 SLP050 P0000 T10171028 =
2016-02-09 01:39 METAR KPTW 090639Z AUTO 10007KT 10SM SCT012 OVC037 M02/M03 A2968 RMK AO2 SNE22
                 P0000 T10171028 =
2016-02-09 00:54 METAR KPTW 090554Z AUTO 10003KT 4SM -SN BR FEW007 OVC014 M01/M02 A2970 RMK AO2
                 SLP058 P0000 60002 T10111022 10022 21011 58015 =
2016-02-09 00:36 METAR KPTW 090536Z AUTO 10004KT 3SM -SN BR FEW007 BKN015 OVC043 M01/M02 A2971
                 RMK AO2 P0000 T10111022 =
2016-02-08 23:59 METAR KPTW 090459Z AUTO 09005KT 3SM -SN BR FEW007 FEW030 OVC044 M01/M02 A2972
                 RMK AO2 P0000 T10111022 =
2016-02-08 23:54 METAR KPTW 090454Z AUTO 10005KT 2 1/2SM -SN BR FEW028 OVC044 M01/M02 A2972 RMK
                 AO2 SLP064 P0001 T10111022 400441011 =
2016-02-08 23:31 METAR KPTW 090431Z AUTO VRB05KT 2 1/2SM -SN BR BKN030 OVC045 M01/M02 A2972 RMK
                 AO2 P0001 T10111022 =
2016-02-08 23:14 METAR KPTW 090414Z AUTO 09006KT 3SM -SN BR SCT036 OVC045 M01/M02 A2973 RMK AO2
                 P0000 T10111022 =
2016-02-08 23:07 METAR KPTW 090407Z AUTO 09004KT 2 1/2SM -SN BR BKN038 OVC047 M01/M02 A2973 RMK
                 AO2 P0000 T10111022 =
2016-02-08 22:54 METAR KPTW 090354Z AUTO 09005KT 4SM -SN BR BKN037 OVC045 M01/M02 A2973 RMK AO2
                 SLP069 P0000 T10111022 =
2016-02-08 22:29 METAR KPTW 090329Z AUTO 09003KT 2SM -SN BR SCT024 BKN033 OVC040 M01/M02 A2974
                 RMK AO2 P0000 T10111022 =
2016-02-08 22:14 METAR KPTW 090314Z AUTO VRB03KT 2SM -SN BR BKN024 OVC029 M01/M02 A2975 RMK AO2
                 P0000 T10061022 =
2016-02-08 21:54 METAR KPTW 090254Z AUTO 00000KT 3SM -SN BR FEW017 OVC028 M01/M02 A2975 RMK AO2
                 SNB10 SLP073 P0001 60001 T10061022 51003 =
2016-02-08 21:46 METAR KPTW 090246Z AUTO 10004KT 2SM -SN BR FEW019 OVC028 M01/M02 A2975 RMK AO2
                 SNB10 P0000 T10061022 =
2016-02-08 21:29 METAR KPTW 090229Z AUTO 13005KT 1 3/4SM -SN BKN021 OVC029 00/M03 A2975 RMK AO2
                 SNB10 P0000 T00001028 =
2016-02-08 21:19 METAR KPTW 090219Z AUTO VRB06KT 3SM -SN OVC029 01/M03 A2975 RMK AO2 SNB10 P0000
                 T00061033 =
2016-02-08 20:54 METAR KPTW 090154Z AUTO VRB04KT 10SM BKN043 OVC050 02/M04 A2974 RMK AO2 SLP072
                 T00171044 =
2016-02-08 19:54 METAR KPTW 090054Z AUTO VRB05KT 10SM OVC035 02/M04 A2975 RMK AO2 SLP073
                 T00221044 =
2016-02-08 18:54 METAR KPTW 082354Z AUTO 00000KT 10SM OVC041 03/M03 A2974 RMK AO2 SLP070
                 T00281033 10044 20028 53005 =
2016-02-08 17:54 METAR KPTW 082254Z AUTO 00000KT 10SM OVC036 03/M03 A2973 RMK AO2 SLP066
                 T00331033 =
2016-02-08 16:54 METAR KPTW 082154Z AUTO VRB03KT 10SM OVC043 03/M03 A2972 RMK AO2 SLP064
                 T00331033 =
2016-02-08 15:54 METAR KPTW 082054Z AUTO 19003KT 10SM OVC040 04/M03 A2972 RMK AO2 SLP065
                 T00391033 53001 =
2016-02-08 14:54 METAR KPTW 081954Z AUTO 15003KT 10SM OVC039 04/M03 A2971 RMK AO2 SLP062
                 T00441033 =
2016-02-08 13:54 METAR KPTW 081854Z AUTO 07004KT 10SM OVC033 04/M03 A2971 RMK AO2 SLP062
                 T00391033 =
2016-02-08 12:54 METAR KPTW 081754Z AUTO 02005KT 10SM OVC032 04/M03 A2972 RMK AO2 SLP064
                 T00391033 10044 20006 58032 =
2016-02-08 11:54 METAR KPTW 081654Z AUTO 05007KT 10SM BKN032 04/M03 A2975 RMK AO2 SLP075
                 T00441028 =
2016-02-08 10:54 METAR KPTW 081554Z AUTO 36009KT 10SM OVC032 03/M03 A2979 RMK AO2 SLP088
                 T00331033 =
2016-02-08 09:54 METAR KPTW 081454Z AUTO 36006KT 10SM OVC030 03/M03 A2981 RMK AO2 SLP096
                 T00281033 52004 =
2016-02-08 08:54 METAR KPTW 081354Z AUTO 35006KT 10SM OVC033 02/M04 A2981 RMK AO2 SLP094
                 T00171039 =
2016-02-08 07:54 METAR KPTW 081254Z AUTO 35005KT 10SM OVC032 01/M04 A2980 RMK AO2 SLP093
                 T00111044 =
2016-02-08 07:17 METAR KPTW 081217Z AUTO 35005KT 10SM OVC029 01/M05 A2980 RMK AO2 T00111050 =
2016-02-08 06:54 METAR KPTW 081154Z AUTO 33004KT 10SM OVC030 01/M05 A2980 RMK AO2 SLP091
                 T00111050 10017 20006 51014 =
2016-02-08 06:42 METAR KPTW 081142Z AUTO 35006KT 10SM OVC029 01/M05 A2980 RMK AO2 T00111050 =
2016-02-08 05:54 METAR KPTW 081054Z AUTO VRB06KT 10SM CLR 01/M06 A2978 RMK AO2 SLP085 T00111056 =
2016-02-08 04:54 METAR KPTW 080954Z AUTO 02005KT 10SM CLR 01/M06 A2976 RMK AO2 SLP076 T00111061 =
2016-02-08 03:54 METAR KPTW 080854Z AUTO 02007KT 10SM CLR 02/M07 A2975 RMK AO2 SLP073 T00171067
                 56035 =
2016-02-08 02:54 METAR KPTW 080754Z AUTO 02009KT 10SM CLR 02/M07 A2977 RMK AO2 SLP082 T00171067 =

Support USWX by starting your Amazon purchase here.